East Barnard, Vermont
Current Conditions -  °F | °C
As of 3:53 AM on Wednesday 22 Oct 2014 (Local Time) from KLEB Reporting Station
Overcast Overcast  
Wind Chill: 47°   Ceiling: 600
Heat Index: 49°   Visibility: 10mi
Dew Point: 44°   Wind: 6mph
Humidity: 83%   Direction: 40°NE
Pressure: 30.06"   Gusts: NA
Location:  43.7658°N, 72.5431°W
Report Text: KLEB 220753Z AUTO 04005KT 10SM OVC006 09/07 A3006 RMK AO2 SLP179 T00940067
Loading
Personal Weather Stations






























Interactive Weather Map
Tropical Storm Tracking
New forecast layout! Learn more

10-Day Weather Forecast

Advertisements
Track Severe Weather on mobile